Thalassa — FNFP — position and weather

sailwx.info

Track history (hours):
 
Tides and Currents Weather Stations Pressure Air Temp Water Temp Dewpoint Dewpoint Depression Visibility Wind Speed Wind Dir Waves Ship Positions

Oceanographic research ship Thalassa (France & Spain)

Detailed information on ship capabilities available from University of Delaware's Ocean Information Center.

Last reported at 2019-Feb-23 15:06 UTC. Time now 2019-Feb-23 17:12 UTC.
Position N 34°16' W 015°19'.

Length 74 m; beam 15 m.

Type: Other ship. MMSI: 227297000.

Date/timePositionNaut miles runAvg speedWind from/ knotsBaromVisibWave heightAir tempDewpointWater temp
2019-Feb-23 15:06N 34°16' W 015°19'111.9
2019-Feb-23 14:59N 34°18' W 015°18'711.7
2019-Feb-23 14:23N 34°24' W 015°15'511.8
2019-Feb-23 14:00N 34°28' W 015°12'7611.6
2019-Feb-23 07:28N 35°37' W 014°33'1411.5
2019-Feb-23 06:13N 35°50' W 014°25'211.2
2019-Feb-23 06:00N 35°52' W 014°24'611.3
2019-Feb-23 05:30N 35°57' W 014°21'611.3
2019-Feb-23 05:00N 36°02' W 014°18'611.3
2019-Feb-23 04:31N 36°07' W 014°15'611.4
2019-Feb-23 04:00N 36°13' W 014°12'611.3
2019-Feb-23 03:30N 36°18' W 014°09'611.3
2019-Feb-23 03:00N 36°23' W 014°06'611.0
2019-Feb-23 02:30N 36°28' W 014°03'1410.9
2019-Feb-23 01:11N 36°41' W 013°55'210.8
2019-Feb-23 01:00N 36°43' W 013°54'510.8
2019-Feb-23 00:29N 36°48' W 013°51'510.8
2019-Feb-23 00:00N 36°52' W 013°49'510.7
2019-Feb-22 23:30N 36°57' W 013°46'1010.7
2019-Feb-22 22:34N 37°06' W 013°41'110.8
2019-Feb-22 22:29N 37°07' W 013°40'19510.0
2019-Feb-22 02:55N 40°03' W 011°54'  
2019-Feb-19 15:33N 47°52' W 005°22'8 9.0
2019-Feb-19 14:39N 47°59' W 005°15'2 8.6
2019-Feb-19 14:23N 48°00' W 005°13'3 8.1
2019-Feb-19 14:00N 48°03' W 005°10'4 7.8
2019-Feb-19 13:31N 48°06' W 005°06'4 8.5
2019-Feb-19 13:00N 48°08' W 005°01'5 9.4
2019-Feb-19 12:30N 48°11' W 004°56'5 9.9
2019-Feb-19 12:01N 48°15' W 004°50'510.2
2019-Feb-19 11:31N 48°17' W 004°44'510.8
2019-Feb-19 11:01N 48°20' W 004°37'4 8.9
2019-Feb-19 10:31N 48°22' W 004°31'2 3.3
2019-Feb-19 10:00N 48°23' W 004°29'0 0.0
2019-Feb-19 09:30N 48°23' W 004°29'0 0.0
2019-Feb-19 09:00N 48°23' W 004°29'0 0.0
2019-Feb-19 08:30N 48°23' W 004°29'0 0.0
2019-Feb-19 08:00N 48°23' W 004°29'0 0.0
2019-Feb-19 07:30N 48°23' W 004°29'0 0.0
2019-Feb-19 07:00N 48°23' W 004°29'0 0.0
2019-Feb-19 06:30N 48°23' W 004°29'0 0.0
2019-Feb-19 06:00N 48°23' W 004°29'0 0.0
2019-Feb-19 05:30N 48°23' W 004°29'0 0.0
2019-Feb-19 05:00N 48°23' W 004°29'0 0.0
2019-Feb-19 04:30N 48°23' W 004°29'0 0.0
2019-Feb-19 04:00N 48°23' W 004°29'0 0.0
2019-Feb-19 03:30N 48°23' W 004°29'0 0.0
2019-Feb-19 03:00N 48°23' W 004°29'0 0.0
2019-Feb-19 02:30N 48°23' W 004°29'0 0.0
2019-Feb-19 02:00N 48°23' W 004°29'0 0.0
2019-Feb-19 01:30N 48°23' W 004°29'0 0.0
2019-Feb-19 01:00N 48°23' W 004°29'0 0.0
2019-Feb-19 00:30N 48°23' W 004°29'0 0.0
2019-Feb-19 00:00N 48°23' W 004°29'0 0.0
2019-Feb-18 23:30N 48°23' W 004°29'0 0.0
2019-Feb-18 23:00N 48°23' W 004°29'0 0.0
2019-Feb-18 22:30N 48°23' W 004°29'0 0.0
2019-Feb-18 22:00N 48°23' W 004°29'0 0.0
2019-Feb-18 21:30N 48°23' W 004°29'0 0.0
2019-Feb-18 21:00N 48°23' W 004°29'0 0.0
2019-Feb-18 20:30N 48°23' W 004°29'0 0.0
2019-Feb-18 20:00N 48°23' W 004°29'0 0.0
2019-Feb-18 19:30N 48°23' W 004°29'0 0.0
2019-Feb-18 19:00N 48°23' W 004°29'0 0.0
2019-Feb-18 18:30N 48°23' W 004°29'0 0.0
2019-Feb-18 18:00N 48°23' W 004°29'0 0.0
2019-Feb-18 17:30N 48°23' W 004°29'0 0.0
2019-Feb-18 17:00N 48°23' W 004°29'0 0.0
2019-Feb-18 16:30N 48°23' W 004°29'0 0.0
2019-Feb-18 16:00N 48°23' W 004°29'0 0.0
2019-Feb-18 15:30N 48°23' W 004°29'0 0.0
2019-Feb-18 15:00N 48°23' W 004°29'0 0.0
2019-Feb-18 14:30N 48°23' W 004°29'0 0.0
2019-Feb-18 14:00N 48°23' W 004°29'0 0.0
2019-Feb-18 13:30N 48°23' W 004°29'0 0.0
2019-Feb-18 13:00N 48°23' W 004°29'0 0.0
2019-Feb-18 12:30N 48°23' W 004°29'0 0.0
2019-Feb-18 12:00N 48°23' W 004°29'0 0.0
2019-Feb-18 11:30N 48°23' W 004°29'0 0.0
2019-Feb-18 11:00N 48°23' W 004°29'0 0.0
2019-Feb-18 10:30N 48°23' W 004°29'0 0.0
2019-Feb-18 10:00N 48°23' W 004°29'0 0.0
2019-Feb-18 09:30N 48°23' W 004°29'0 0.0
2019-Feb-18 09:00N 48°23' W 004°29'0 0.0
2019-Feb-18 08:30N 48°23' W 004°29'0 0.0
2019-Feb-18 08:00N 48°23' W 004°29'0 0.0
2019-Feb-18 07:30N 48°23' W 004°29'0 0.0
2019-Feb-18 07:00N 48°23' W 004°29'0 0.0
2019-Feb-18 06:30N 48°23' W 004°29'0 0.0
2019-Feb-18 06:00N 48°23' W 004°29'0 0.0
2019-Feb-18 05:30N 48°23' W 004°29'0 0.0
2019-Feb-18 05:00N 48°23' W 004°29'0 0.0
2019-Feb-18 04:30N 48°23' W 004°29'0 0.0
2019-Feb-18 04:00N 48°23' W 004°29'0 0.0
2019-Feb-18 03:30N 48°23' W 004°29'0 0.0
2019-Feb-18 03:00N 48°23' W 004°29'0 0.0
2019-Feb-18 02:30N 48°23' W 004°29'0 0.0
2019-Feb-18 02:00N 48°23' W 004°29'0 0.0
2019-Feb-18 01:30N 48°23' W 004°29'0 0.0
2019-Feb-18 01:00N 48°23' W 004°29'0 0.0
2019-Feb-18 00:30N 48°23' W 004°29'0 0.0
2019-Feb-18 00:00N 48°23' W 004°29'0 0.0
2019-Feb-17 23:30N 48°23' W 004°29'0 0.0
2019-Feb-17 23:00N 48°23' W 004°29'0 0.0
2019-Feb-17 22:30N 48°23' W 004°29'0 0.0
2019-Feb-17 22:00N 48°23' W 004°29'0 0.0
2019-Feb-17 21:30N 48°23' W 004°29'0 0.0
2019-Feb-17 21:00N 48°23' W 004°29'0 0.0
2019-Feb-17 20:30N 48°23' W 004°29'0 0.0
2019-Feb-17 20:00N 48°23' W 004°29'0 0.0
2019-Feb-17 19:30N 48°23' W 004°29'0 0.0
2019-Feb-17 19:00N 48°23' W 004°29'0 0.0
2019-Feb-17 18:30N 48°23' W 004°29'0 0.0
2019-Feb-17 18:00N 48°23' W 004°29'0 0.0
2019-Feb-17 17:30N 48°23' W 004°29'0 0.0
2019-Feb-17 17:00N 48°23' W 004°29'0 0.0
2019-Feb-17 16:30N 48°23' W 004°29'0 0.0
2019-Feb-17 16:00N 48°23' W 004°29'0 0.0
2019-Feb-17 15:30N 48°23' W 004°29'0 0.0
2019-Feb-17 15:00N 48°23' W 004°29'0 0.0
2019-Feb-17 14:30N 48°23' W 004°29'0 0.0
2019-Feb-17 14:00N 48°23' W 004°29'0 0.0
2019-Feb-17 13:30N 48°23' W 004°29'0 0.0
2019-Feb-17 13:00N 48°23' W 004°29'0 0.0
2019-Feb-17 12:30N 48°23' W 004°29'0 0.0
2019-Feb-17 12:00N 48°23' W 004°29'0 0.0
2019-Feb-17 11:30N 48°23' W 004°29'0 0.0
2019-Feb-17 11:00N 48°23' W 004°29'0 0.0
2019-Feb-17 10:30N 48°23' W 004°29'0 0.0
2019-Feb-17 10:00N 48°23' W 004°29'0 0.0
2019-Feb-17 09:30N 48°23' W 004°29'0 0.0
2019-Feb-17 09:00N 48°23' W 004°29'0 0.0
2019-Feb-17 08:30N 48°23' W 004°29'0 0.0
2019-Feb-17 08:00N 48°23' W 004°29'0 0.0
2019-Feb-17 07:30N 48°23' W 004°29'0 0.0
2019-Feb-17 07:00N 48°23' W 004°29'0 0.0
2019-Feb-17 06:30N 48°23' W 004°29'0 0.0
2019-Feb-17 06:00N 48°23' W 004°29'0 0.0
2019-Feb-17 05:30N 48°23' W 004°29'0 0.0
2019-Feb-17 05:00N 48°23' W 004°29'0 0.0
2019-Feb-17 04:30N 48°23' W 004°29'0 0.0
2019-Feb-17 04:00N 48°23' W 004°29'0 0.0
2019-Feb-17 03:30N 48°23' W 004°29'0 0.0
2019-Feb-17 03:00N 48°23' W 004°29'0 0.0
2019-Feb-17 02:30N 48°23' W 004°29'0 0.0
2019-Feb-17 02:00N 48°23' W 004°29'0 0.0
2019-Feb-17 01:30N 48°23' W 004°29'0 0.0
2019-Feb-17 01:00N 48°23' W 004°29'0 0.0
2019-Feb-17 00:30N 48°23' W 004°29'0 0.0
2019-Feb-17 00:00N 48°23' W 004°29'0 0.0
2019-Feb-16 23:30N 48°23' W 004°29'0 0.0
2019-Feb-16 23:00N 48°23' W 004°29'0 0.0
2019-Feb-16 22:30N 48°23' W 004°29'0 0.0
2019-Feb-16 22:00N 48°23' W 004°29'0 0.0
2019-Feb-16 21:30N 48°23' W 004°29'0 0.0
2019-Feb-16 21:00N 48°23' W 004°29'0 0.0
2019-Feb-16 20:30N 48°23' W 004°29'0 0.0
2019-Feb-16 20:00N 48°23' W 004°29'0 0.0
2019-Feb-16 19:30N 48°23' W 004°29'0 0.0
2019-Feb-16 19:00N 48°23' W 004°29'0 0.0
2019-Feb-16 18:30N 48°23' W 004°29'0 0.0
2019-Feb-16 18:00N 48°23' W 004°29'0 0.0
2019-Feb-16 17:30N 48°23' W 004°29'0 0.0
2019-Feb-16 17:00N 48°23' W 004°29'0 0.0
2019-Feb-16 16:30N 48°23' W 004°29'0 0.0
2019-Feb-16 16:00N 48°23' W 004°29'0 0.0
2019-Feb-16 15:30N 48°23' W 004°29'0 0.0
2019-Feb-16 15:00N 48°23' W 004°29'0 0.0
2019-Feb-16 14:30N 48°23' W 004°29'0 0.0
2019-Feb-16 14:00N 48°23' W 004°29'0 0.0
2019-Feb-16 13:30N 48°23' W 004°29'0 0.0
2019-Feb-16 13:00N 48°23' W 004°29'0 0.0
2019-Feb-16 12:30N 48°23' W 004°29'0 0.0
2019-Feb-16 12:00N 48°23' W 004°29'0 0.0
2019-Feb-16 11:30N 48°23' W 004°29'0 0.0
2019-Feb-16 11:00N 48°23' W 004°29'0 0.0
2019-Feb-16 10:30N 48°23' W 004°29'0 0.0
2019-Feb-16 10:00N 48°23' W 004°29'0 0.0
2019-Feb-16 09:30N 48°23' W 004°29'0 0.0
2019-Feb-16 09:00N 48°23' W 004°29'0 0.0
2019-Feb-16 08:30N 48°23' W 004°29'0 0.0
2019-Feb-16 08:00N 48°23' W 004°29'0 0.0
2019-Feb-16 07:30N 48°23' W 004°29'0 0.0
2019-Feb-16 07:00N 48°23' W 004°29'0 0.0
2019-Feb-16 06:30N 48°23' W 004°29'0 0.0
2019-Feb-16 06:00N 48°23' W 004°29'0 0.0
2019-Feb-16 05:30N 48°23' W 004°29'0 0.0
2019-Feb-16 05:00N 48°23' W 004°29'0 0.0
2019-Feb-16 04:30N 48°23' W 004°29'0 0.0
2019-Feb-16 04:00N 48°23' W 004°29'0 0.0
2019-Feb-16 03:30N 48°23' W 004°29'0 0.0
2019-Feb-16 03:00N 48°23' W 004°29'0 0.0
2019-Feb-16 02:30N 48°23' W 004°29'0 0.0
2019-Feb-16 02:00N 48°23' W 004°29'0 0.0
2019-Feb-16 01:27N 48°23' W 004°29'0 0.0
2019-Feb-16 01:00N 48°23' W 004°29'0 0.0
2019-Feb-16 00:30N 48°23' W 004°29'0 0.0
2019-Feb-16 00:00N 48°23' W 004°29'0 0.0
2019-Feb-15 23:30N 48°23' W 004°29'0 0.0
2019-Feb-15 23:00N 48°23' W 004°29'0 0.0
2019-Feb-15 22:30N 48°23' W 004°29'0 0.0
2019-Feb-15 22:00N 48°23' W 004°29'0 0.0
2019-Feb-15 21:30N 48°23' W 004°29'0 0.0
2019-Feb-15 21:00N 48°23' W 004°29'0 0.0
2019-Feb-15 20:30N 48°23' W 004°29'0 0.0
2019-Feb-15 20:00N 48°23' W 004°29'0 0.0
2019-Feb-15 19:30N 48°23' W 004°29'0 0.0
2019-Feb-15 18:57N 48°23' W 004°29'0 0.0
2019-Feb-15 18:30N 48°23' W 004°29'0 0.0
2019-Feb-15 18:00N 48°23' W 004°29'0 0.0
2019-Feb-15 17:30N 48°23' W 004°29'0 0.0
2019-Feb-15 17:00N 48°23' W 004°29'0 0.0
2019-Feb-15 16:30N 48°23' W 004°29'0 0.0
2019-Feb-15 16:00N 48°23' W 004°29'0 0.0
2019-Feb-15 15:30N 48°23' W 004°29'0 0.0
2019-Feb-15 14:59N 48°23' W 004°29'0 0.0
2019-Feb-15 14:29N 48°23' W 004°29'0 0.0
2019-Feb-15 13:59N 48°23' W 004°29'0 0.0
2019-Feb-15 13:29N 48°23' W 004°29'0 0.0
2019-Feb-15 12:59N 48°23' W 004°29'0 0.0
2019-Feb-15 12:29N 48°23' W 004°29'0 0.0
2019-Feb-15 11:59N 48°23' W 004°29'0 0.0
2019-Feb-15 11:29N 48°23' W 004°29'0 0.0
2019-Feb-15 10:59N 48°23' W 004°29'0 0.0
2019-Feb-15 10:29N 48°23' W 004°29'0 0.0
2019-Feb-15 09:59N 48°23' W 004°29'0 0.0
2019-Feb-15 09:29N 48°23' W 004°29'0 0.0
2019-Feb-15 08:59N 48°23' W 004°29'0 0.0
2019-Feb-15 08:29N 48°23' W 004°29'0 0.0
2019-Feb-15 07:59N 48°23' W 004°29'0 0.0
2019-Feb-15 07:29N 48°23' W 004°29'0 0.0
2019-Feb-15 07:00N 48°23' W 004°29'2 3.1
2019-Feb-15 06:30N 48°21' W 004°30'2 3.6
2019-Feb-15 06:00N 48°21' W 004°32'3 5.9
2019-Feb-15 05:30N 48°20' W 004°36'3 5.8
2019-Feb-15 05:00N 48°19' W 004°41'3 6.0
2019-Feb-15 04:30N 48°19' W 004°45'3 6.2
2019-Feb-15 04:00N 48°21' W 004°49'4 8.3
2019-Feb-15 03:30N 48°25' W 004°49'4 7.4
2019-Feb-15 03:01N 48°29' W 004°50'3 6.2
2019-Feb-15 02:31N 48°32' W 004°50'2 4.0
2019-Feb-15 02:00N 48°34' W 004°49'2 4.2
2019-Feb-15 01:30N 48°35' W 004°48'2 4.1
2019-Feb-15 01:00N 48°37' W 004°46'2 3.9
2019-Feb-15 00:30N 48°39' W 004°44'2 3.9
2019-Feb-15 00:01N 48°40' W 004°42'2 3.7
2019-Feb-14 23:31N 48°41' W 004°40'3 6.7
2019-Feb-14 23:01N 48°44' W 004°36'4 8.7
2019-Feb-14 22:31N 48°47' W 004°32'4 8.8
2019-Feb-14 22:00N 48°51' W 004°29'4 8.8
2019-Feb-14 21:30N 48°55' W 004°26'5 8.5
2019-Feb-14 20:59N 48°58' W 004°22'4 7.9
2019-Feb-14 20:28N 49°02' W 004°18'4 7.7
2019-Feb-14 20:00N 49°05' W 004°15'4 7.3
2019-Feb-14 19:31N 49°08' W 004°12'4 7.5
2019-Feb-14 19:00N 49°11' W 004°09'4 7.7
2019-Feb-14 18:30N 49°14' W 004°05'4 8.5
2019-Feb-14 18:00N 49°17' W 004°01'5 9.8
2019-Feb-14 17:30N 49°21' W 003°57'2 4.1
2019-Feb-14 17:00N 49°23' W 003°55'2 4.5
2019-Feb-14 16:30N 49°22' W 003°52'1 1.9
2019-Feb-14 16:00N 49°21' W 003°51'3 5.5
2019-Feb-14 15:30N 49°21' W 003°55'2 4.6
2019-Feb-14 15:00N 49°19' W 003°57'4 7.9
2019-Feb-14 14:30N 49°23' W 003°54'510.4
2019-Feb-14 14:00N 49°25' W 003°47'510.3
2019-Feb-14 13:30N 49°28' W 003°39'510.3
2019-Feb-14 13:00N 49°30' W 003°32'510.2
2019-Feb-14 12:31N 49°32' W 003°26'510.2
2019-Feb-14 12:00N 49°35' W 003°18'5 9.9
2019-Feb-14 11:30N 49°37' W 003°12'510.5
2019-Feb-14 11:00N 49°42' W 003°08'510.6
2019-Feb-14 10:30N 49°47' W 003°04'510.9
2019-Feb-14 10:00N 49°51' W 002°60'611.2
2019-Feb-14 09:31N 49°56' W 002°56'611.2
2019-Feb-14 08:59N 49°58' W 002°47'612.0
2019-Feb-14 08:31N 49°60' W 002°39'812.2
2019-Feb-14 07:52N 50°02' W 002°27'512.3
2019-Feb-14 07:28N 50°04' W 002°20'612.3
2019-Feb-14 06:58N 50°06' W 002°11'712.0
2019-Feb-14 06:24N 50°07' W 002°00'611.7
2019-Feb-14 05:53N 50°09' W 001°51'511.4
2019-Feb-14 05:27N 50°10' W 001°44'510.9
2019-Feb-14 05:00N 50°12' W 001°36'510.5
2019-Feb-14 04:30N 50°13' W 001°28'510.0
2019-Feb-14 04:00N 50°15' W 001°21'9 9.3
2019-Feb-14 03:00N 50°17' W 001°07'4 8.7
2019-Feb-14 02:30N 50°19' W 001°01'4 8.8
2019-Feb-14 02:00N 50°20' W 000°54'4 9.0
2019-Feb-14 01:30N 50°21' W 000°47'5 9.3
2019-Feb-14 01:00N 50°22' W 000°40'5 9.5
2019-Feb-14 00:29N 50°24' W 000°33'5 9.5
2019-Feb-14 00:00N 50°25' W 000°26'510.1
2019-Feb-13 23:30N 50°26' W 000°18'510.6
2019-Feb-13 23:00N 50°27' W 000°10'510.9
2019-Feb-13 22:30N 50°29' W 000°02'611.2
2019-Feb-13 22:00N 50°31' E 000°06'611.4
2019-Feb-13 21:30N 50°32' E 000°15'611.5
2019-Feb-13 21:00N 50°33' E 000°24'611.4
2019-Feb-13 20:30N 50°35' E 000°33'611.2
2019-Feb-13 20:00N 50°36' E 000°41'611.2
2019-Feb-13 19:30N 50°38' E 000°49'611.3
2019-Feb-13 19:00N 50°40' E 000°58'611.0
2019-Feb-13 18:30N 50°42' E 001°06'510.8
2019-Feb-13 18:00N 50°42' E 001°15'510.5
2019-Feb-13 17:30N 50°40' E 001°22'5 9.8
2019-Feb-13 17:00N 50°43' E 001°28'4 8.1
2019-Feb-13 16:30N 50°45' E 001°34'1 2.8
2019-Feb-13 16:00N 50°43' E 001°35'0 0.0
2019-Feb-13 15:30N 50°43' E 001°35'  
Track history (hours):
 
Tides and Currents Weather Stations Pressure Air Temp Water Temp Dewpoint Dewpoint Depression Visibility Wind Speed Wind Dir Waves Ship Positions

Oceanographic research ship Thalassa (France & Spain)

Detailed information on ship capabilities available from University of Delaware's Ocean Information Center.

Last reported at 2019-Feb-23 15:06 UTC. Time now 2019-Feb-23 17:12 UTC.
Position N 34°16' W 015°19'.

Length 74 m; beam 15 m.

Type: Other ship. MMSI: 227297000.

Date/timePositionNaut miles runAvg speedWind from/ knotsBaromVisibWave heightAir tempDewpointWater temp
2019-Feb-23 15:06N 34°16' W 015°19'111.9
2019-Feb-23 14:59N 34°18' W 015°18'711.7
2019-Feb-23 14:23N 34°24' W 015°15'511.8
2019-Feb-23 14:00N 34°28' W 015°12'7611.6
2019-Feb-23 07:28N 35°37' W 014°33'1411.5
2019-Feb-23 06:13N 35°50' W 014°25'211.2
2019-Feb-23 06:00N 35°52' W 014°24'611.3
2019-Feb-23 05:30N 35°57' W 014°21'611.3
2019-Feb-23 05:00N 36°02' W 014°18'611.3
2019-Feb-23 04:31N 36°07' W 014°15'611.4
2019-Feb-23 04:00N 36°13' W 014°12'611.3
2019-Feb-23 03:30N 36°18' W 014°09'611.3
2019-Feb-23 03:00N 36°23' W 014°06'611.0
2019-Feb-23 02:30N 36°28' W 014°03'1410.9
2019-Feb-23 01:11N 36°41' W 013°55'210.8
2019-Feb-23 01:00N 36°43' W 013°54'510.8
2019-Feb-23 00:29N 36°48' W 013°51'510.8
2019-Feb-23 00:00N 36°52' W 013°49'510.7
2019-Feb-22 23:30N 36°57' W 013°46'1010.7
2019-Feb-22 22:34N 37°06' W 013°41'110.8
2019-Feb-22 22:29N 37°07' W 013°40'19510.0
2019-Feb-22 02:55N 40°03' W 011°54'  
2019-Feb-19 15:33N 47°52' W 005°22'8 9.0
2019-Feb-19 14:39N 47°59' W 005°15'2 8.6
2019-Feb-19 14:23N 48°00' W 005°13'3 8.1
2019-Feb-19 14:00N 48°03' W 005°10'4 7.8
2019-Feb-19 13:31N 48°06' W 005°06'4 8.5
2019-Feb-19 13:00N 48°08' W 005°01'5 9.4
2019-Feb-19 12:30N 48°11' W 004°56'5 9.9
2019-Feb-19 12:01N 48°15' W 004°50'510.2
2019-Feb-19 11:31N 48°17' W 004°44'510.8
2019-Feb-19 11:01N 48°20' W 004°37'4 8.9
2019-Feb-19 10:31N 48°22' W 004°31'2 3.3
2019-Feb-19 10:00N 48°23' W 004°29'0 0.0
2019-Feb-19 09:30N 48°23' W 004°29'0 0.0
2019-Feb-19 09:00N 48°23' W 004°29'0 0.0
2019-Feb-19 08:30N 48°23' W 004°29'0 0.0
2019-Feb-19 08:00N 48°23' W 004°29'0 0.0
2019-Feb-19 07:30N 48°23' W 004°29'0 0.0
2019-Feb-19 07:00N 48°23' W 004°29'0 0.0
2019-Feb-19 06:30N 48°23' W 004°29'0 0.0
2019-Feb-19 06:00N 48°23' W 004°29'0 0.0
2019-Feb-19 05:30N 48°23' W 004°29'0 0.0
2019-Feb-19 05:00N 48°23' W 004°29'0 0.0
2019-Feb-19 04:30N 48°23' W 004°29'0 0.0
2019-Feb-19 04:00N 48°23' W 004°29'0 0.0
2019-Feb-19 03:30N 48°23' W 004°29'0 0.0
2019-Feb-19 03:00N 48°23' W 004°29'0 0.0
2019-Feb-19 02:30N 48°23' W 004°29'0 0.0
2019-Feb-19 02:00N 48°23' W 004°29'0 0.0
2019-Feb-19 01:30N 48°23' W 004°29'0 0.0
2019-Feb-19 01:00N 48°23' W 004°29'0 0.0
2019-Feb-19 00:30N 48°23' W 004°29'0 0.0
2019-Feb-19 00:00N 48°23' W 004°29'0 0.0
2019-Feb-18 23:30N 48°23' W 004°29'0 0.0
2019-Feb-18 23:00N 48°23' W 004°29'0 0.0
2019-Feb-18 22:30N 48°23' W 004°29'0 0.0
2019-Feb-18 22:00N 48°23' W 004°29'0 0.0
2019-Feb-18 21:30N 48°23' W 004°29'0 0.0
2019-Feb-18 21:00N 48°23' W 004°29'0 0.0
2019-Feb-18 20:30N 48°23' W 004°29'0 0.0
2019-Feb-18 20:00N 48°23' W 004°29'0 0.0
2019-Feb-18 19:30N 48°23' W 004°29'0 0.0
2019-Feb-18 19:00N 48°23' W 004°29'0 0.0
2019-Feb-18 18:30N 48°23' W 004°29'0 0.0
2019-Feb-18 18:00N 48°23' W 004°29'0 0.0
2019-Feb-18 17:30N 48°23' W 004°29'0 0.0
2019-Feb-18 17:00N 48°23' W 004°29'0 0.0
2019-Feb-18 16:30N 48°23' W 004°29'0 0.0
2019-Feb-18 16:00N 48°23' W 004°29'0 0.0
2019-Feb-18 15:30N 48°23' W 004°29'0 0.0
2019-Feb-18 15:00N 48°23' W 004°29'0 0.0
2019-Feb-18 14:30N 48°23' W 004°29'0 0.0
2019-Feb-18 14:00N 48°23' W 004°29'0 0.0
2019-Feb-18 13:30N 48°23' W 004°29'0 0.0
2019-Feb-18 13:00N 48°23' W 004°29'0 0.0
2019-Feb-18 12:30N 48°23' W 004°29'0 0.0
2019-Feb-18 12:00N 48°23' W 004°29'0 0.0
2019-Feb-18 11:30N 48°23' W 004°29'0 0.0
2019-Feb-18 11:00N 48°23' W 004°29'0 0.0
2019-Feb-18 10:30N 48°23' W 004°29'0 0.0
2019-Feb-18 10:00N 48°23' W 004°29'0 0.0
2019-Feb-18 09:30N 48°23' W 004°29'0 0.0
2019-Feb-18 09:00N 48°23' W 004°29'0 0.0
2019-Feb-18 08:30N 48°23' W 004°29'0 0.0
2019-Feb-18 08:00N 48°23' W 004°29'0 0.0
2019-Feb-18 07:30N 48°23' W 004°29'0 0.0
2019-Feb-18 07:00N 48°23' W 004°29'0 0.0
2019-Feb-18 06:30N 48°23' W 004°29'0 0.0
2019-Feb-18 06:00N 48°23' W 004°29'0 0.0
2019-Feb-18 05:30N 48°23' W 004°29'0 0.0
2019-Feb-18 05:00N 48°23' W 004°29'0 0.0
2019-Feb-18 04:30N 48°23' W 004°29'0 0.0
2019-Feb-18 04:00N 48°23' W 004°29'0 0.0
2019-Feb-18 03:30N 48°23' W 004°29'0 0.0
2019-Feb-18 03:00N 48°23' W 004°29'0 0.0
2019-Feb-18 02:30N 48°23' W 004°29'0 0.0
2019-Feb-18 02:00N 48°23' W 004°29'0 0.0
2019-Feb-18 01:30N 48°23' W 004°29'0 0.0
2019-Feb-18 01:00N 48°23' W 004°29'0 0.0
2019-Feb-18 00:30N 48°23' W 004°29'0 0.0
2019-Feb-18 00:00N 48°23' W 004°29'0 0.0
2019-Feb-17 23:30N 48°23' W 004°29'0 0.0
2019-Feb-17 23:00N 48°23' W 004°29'0 0.0
2019-Feb-17 22:30N 48°23' W 004°29'0 0.0
2019-Feb-17 22:00N 48°23' W 004°29'0 0.0
2019-Feb-17 21:30N 48°23' W 004°29'0 0.0
2019-Feb-17 21:00N 48°23' W 004°29'0 0.0
2019-Feb-17 20:30N 48°23' W 004°29'0 0.0
2019-Feb-17 20:00N 48°23' W 004°29'0 0.0
2019-Feb-17 19:30N 48°23' W 004°29'0 0.0
2019-Feb-17 19:00N 48°23' W 004°29'0 0.0
2019-Feb-17 18:30N 48°23' W 004°29'0 0.0
2019-Feb-17 18:00N 48°23' W 004°29'0 0.0
2019-Feb-17 17:30N 48°23' W 004°29'0 0.0
2019-Feb-17 17:00N 48°23' W 004°29'0 0.0
2019-Feb-17 16:30N 48°23' W 004°29'0 0.0
2019-Feb-17 16:00N 48°23' W 004°29'0 0.0
2019-Feb-17 15:30N 48°23' W 004°29'0 0.0
2019-Feb-17 15:00N 48°23' W 004°29'0 0.0
2019-Feb-17 14:30N 48°23' W 004°29'0 0.0
2019-Feb-17 14:00N 48°23' W 004°29'0 0.0
2019-Feb-17 13:30N 48°23' W 004°29'0 0.0
2019-Feb-17 13:00N 48°23' W 004°29'0 0.0
2019-Feb-17 12:30N 48°23' W 004°29'0 0.0
2019-Feb-17 12:00N 48°23' W 004°29'0 0.0
2019-Feb-17 11:30N 48°23' W 004°29'0 0.0
2019-Feb-17 11:00N 48°23' W 004°29'0 0.0
2019-Feb-17 10:30N 48°23' W 004°29'0 0.0
2019-Feb-17 10:00N 48°23' W 004°29'0 0.0
2019-Feb-17 09:30N 48°23' W 004°29'0 0.0
2019-Feb-17 09:00N 48°23' W 004°29'0 0.0
2019-Feb-17 08:30N 48°23' W 004°29'0 0.0
2019-Feb-17 08:00N 48°23' W 004°29'0 0.0
2019-Feb-17 07:30N 48°23' W 004°29'0 0.0
2019-Feb-17 07:00N 48°23' W 004°29'0 0.0
2019-Feb-17 06:30N 48°23' W 004°29'0 0.0
2019-Feb-17 06:00N 48°23' W 004°29'0 0.0
2019-Feb-17 05:30N 48°23' W 004°29'0 0.0
2019-Feb-17 05:00N 48°23' W 004°29'0 0.0
2019-Feb-17 04:30N 48°23' W 004°29'0 0.0
2019-Feb-17 04:00N 48°23' W 004°29'0 0.0
2019-Feb-17 03:30N 48°23' W 004°29'0 0.0
2019-Feb-17 03:00N 48°23' W 004°29'0 0.0
2019-Feb-17 02:30N 48°23' W 004°29'0 0.0
2019-Feb-17 02:00N 48°23' W 004°29'0 0.0
2019-Feb-17 01:30N 48°23' W 004°29'0 0.0
2019-Feb-17 01:00N 48°23' W 004°29'0 0.0
2019-Feb-17 00:30N 48°23' W 004°29'0 0.0
2019-Feb-17 00:00N 48°23' W 004°29'0 0.0
2019-Feb-16 23:30N 48°23' W 004°29'0 0.0
2019-Feb-16 23:00N 48°23' W 004°29'0 0.0
2019-Feb-16 22:30N 48°23' W 004°29'0 0.0
2019-Feb-16 22:00N 48°23' W 004°29'0 0.0
2019-Feb-16 21:30N 48°23' W 004°29'0 0.0
2019-Feb-16 21:00N 48°23' W 004°29'0 0.0
2019-Feb-16 20:30N 48°23' W 004°29'0 0.0
2019-Feb-16 20:00N 48°23' W 004°29'0 0.0
2019-Feb-16 19:30N 48°23' W 004°29'0 0.0
2019-Feb-16 19:00N 48°23' W 004°29'0 0.0
2019-Feb-16 18:30N 48°23' W 004°29'0 0.0
2019-Feb-16 18:00N 48°23' W 004°29'0 0.0
2019-Feb-16 17:30N 48°23' W 004°29'0 0.0
2019-Feb-16 17:00N 48°23' W 004°29'0 0.0
2019-Feb-16 16:30N 48°23' W 004°29'0 0.0
2019-Feb-16 16:00N 48°23' W 004°29'0 0.0
2019-Feb-16 15:30N 48°23' W 004°29'0 0.0
2019-Feb-16 15:00N 48°23' W 004°29'0 0.0
2019-Feb-16 14:30N 48°23' W 004°29'0 0.0
2019-Feb-16 14:00N 48°23' W 004°29'0 0.0
2019-Feb-16 13:30N 48°23' W 004°29'0 0.0
2019-Feb-16 13:00N 48°23' W 004°29'0 0.0
2019-Feb-16 12:30N 48°23' W 004°29'0 0.0
2019-Feb-16 12:00N 48°23' W 004°29'0 0.0
2019-Feb-16 11:30N 48°23' W 004°29'0 0.0
2019-Feb-16 11:00N 48°23' W 004°29'0 0.0
2019-Feb-16 10:30N 48°23' W 004°29'0 0.0
2019-Feb-16 10:00N 48°23' W 004°29'0 0.0
2019-Feb-16 09:30N 48°23' W 004°29'0 0.0
2019-Feb-16 09:00N 48°23' W 004°29'0 0.0
2019-Feb-16 08:30N 48°23' W 004°29'0 0.0
2019-Feb-16 08:00N 48°23' W 004°29'0 0.0
2019-Feb-16 07:30N 48°23' W 004°29'0 0.0
2019-Feb-16 07:00N 48°23' W 004°29'0 0.0
2019-Feb-16 06:30N 48°23' W 004°29'0 0.0
2019-Feb-16 06:00N 48°23' W 004°29'0 0.0
2019-Feb-16 05:30N 48°23' W 004°29'0 0.0
2019-Feb-16 05:00N 48°23' W 004°29'0 0.0
2019-Feb-16 04:30N 48°23' W 004°29'0 0.0
2019-Feb-16 04:00N 48°23' W 004°29'0 0.0
2019-Feb-16 03:30N 48°23' W 004°29'0 0.0
2019-Feb-16 03:00N 48°23' W 004°29'0 0.0
2019-Feb-16 02:30N 48°23' W 004°29'0 0.0
2019-Feb-16 02:00N 48°23' W 004°29'0 0.0
2019-Feb-16 01:27N 48°23' W 004°29'0 0.0
2019-Feb-16 01:00N 48°23' W 004°29'0 0.0
2019-Feb-16 00:30N 48°23' W 004°29'0 0.0
2019-Feb-16 00:00N 48°23' W 004°29'0 0.0
2019-Feb-15 23:30N 48°23' W 004°29'0 0.0
2019-Feb-15 23:00N 48°23' W 004°29'0 0.0
2019-Feb-15 22:30N 48°23' W 004°29'0 0.0
2019-Feb-15 22:00N 48°23' W 004°29'0 0.0
2019-Feb-15 21:30N 48°23' W 004°29'0 0.0
2019-Feb-15 21:00N 48°23' W 004°29'0 0.0
2019-Feb-15 20:30N 48°23' W 004°29'0 0.0
2019-Feb-15 20:00N 48°23' W 004°29'0 0.0
2019-Feb-15 19:30N 48°23' W 004°29'0 0.0
2019-Feb-15 18:57N 48°23' W 004°29'0 0.0
2019-Feb-15 18:30N 48°23' W 004°29'0 0.0
2019-Feb-15 18:00N 48°23' W 004°29'0 0.0
2019-Feb-15 17:30N 48°23' W 004°29'0 0.0
2019-Feb-15 17:00N 48°23' W 004°29'0 0.0
2019-Feb-15 16:30N 48°23' W 004°29'0 0.0
2019-Feb-15 16:00N 48°23' W 004°29'0 0.0
2019-Feb-15 15:30N 48°23' W 004°29'0 0.0
2019-Feb-15 14:59N 48°23' W 004°29'0 0.0
2019-Feb-15 14:29N 48°23' W 004°29'0 0.0
2019-Feb-15 13:59N 48°23' W 004°29'0 0.0
2019-Feb-15 13:29N 48°23' W 004°29'0 0.0
2019-Feb-15 12:59N 48°23' W 004°29'0 0.0
2019-Feb-15 12:29N 48°23' W 004°29'0 0.0
2019-Feb-15 11:59N 48°23' W 004°29'0 0.0
2019-Feb-15 11:29N 48°23' W 004°29'0 0.0
2019-Feb-15 10:59N 48°23' W 004°29'0 0.0
2019-Feb-15 10:29N 48°23' W 004°29'0 0.0
2019-Feb-15 09:59N 48°23' W 004°29'0 0.0
2019-Feb-15 09:29N 48°23' W 004°29'0 0.0
2019-Feb-15 08:59N 48°23' W 004°29'0 0.0
2019-Feb-15 08:29N 48°23' W 004°29'0 0.0
2019-Feb-15 07:59N 48°23' W 004°29'0 0.0
2019-Feb-15 07:29N 48°23' W 004°29'0 0.0
2019-Feb-15 07:00N 48°23' W 004°29'2 3.1
2019-Feb-15 06:30N 48°21' W 004°30'2 3.6
2019-Feb-15 06:00N 48°21' W 004°32'3 5.9
2019-Feb-15 05:30N 48°20' W 004°36'3 5.8
2019-Feb-15 05:00N 48°19' W 004°41'3 6.0
2019-Feb-15 04:30N 48°19' W 004°45'3 6.2
2019-Feb-15 04:00N 48°21' W 004°49'4 8.3
2019-Feb-15 03:30N 48°25' W 004°49'4 7.4
2019-Feb-15 03:01N 48°29' W 004°50'3 6.2
2019-Feb-15 02:31N 48°32' W 004°50'2 4.0
2019-Feb-15 02:00N 48°34' W 004°49'2 4.2
2019-Feb-15 01:30N 48°35' W 004°48'2 4.1
2019-Feb-15 01:00N 48°37' W 004°46'2 3.9
2019-Feb-15 00:30N 48°39' W 004°44'2 3.9
2019-Feb-15 00:01N 48°40' W 004°42'2 3.7
2019-Feb-14 23:31N 48°41' W 004°40'3 6.7
2019-Feb-14 23:01N 48°44' W 004°36'4 8.7
2019-Feb-14 22:31N 48°47' W 004°32'4 8.8
2019-Feb-14 22:00N 48°51' W 004°29'4 8.8
2019-Feb-14 21:30N 48°55' W 004°26'5 8.5
2019-Feb-14 20:59N 48°58' W 004°22'4 7.9
2019-Feb-14 20:28N 49°02' W 004°18'4 7.7
2019-Feb-14 20:00N 49°05' W 004°15'4 7.3
2019-Feb-14 19:31N 49°08' W 004°12'4 7.5
2019-Feb-14 19:00N 49°11' W 004°09'4 7.7
2019-Feb-14 18:30N 49°14' W 004°05'4 8.5
2019-Feb-14 18:00N 49°17' W 004°01'5 9.8
2019-Feb-14 17:30N 49°21' W 003°57'2 4.1
2019-Feb-14 17:00N 49°23' W 003°55'2 4.5
2019-Feb-14 16:30N 49°22' W 003°52'1 1.9
2019-Feb-14 16:00N 49°21' W 003°51'3 5.5
2019-Feb-14 15:30N 49°21' W 003°55'2 4.6
2019-Feb-14 15:00N 49°19' W 003°57'4 7.9
2019-Feb-14 14:30N 49°23' W 003°54'510.4
2019-Feb-14 14:00N 49°25' W 003°47'510.3
2019-Feb-14 13:30N 49°28' W 003°39'510.3
2019-Feb-14 13:00N 49°30' W 003°32'510.2
2019-Feb-14 12:31N 49°32' W 003°26'510.2
2019-Feb-14 12:00N 49°35' W 003°18'5 9.9
2019-Feb-14 11:30N 49°37' W 003°12'510.5
2019-Feb-14 11:00N 49°42' W 003°08'510.6
2019-Feb-14 10:30N 49°47' W 003°04'510.9
2019-Feb-14 10:00N 49°51' W 002°60'611.2
2019-Feb-14 09:31N 49°56' W 002°56'611.2
2019-Feb-14 08:59N 49°58' W 002°47'612.0
2019-Feb-14 08:31N 49°60' W 002°39'812.2
2019-Feb-14 07:52N 50°02' W 002°27'512.3
2019-Feb-14 07:28N 50°04' W 002°20'612.3
2019-Feb-14 06:58N 50°06' W 002°11'712.0
2019-Feb-14 06:24N 50°07' W 002°00'611.7
2019-Feb-14 05:53N 50°09' W 001°51'511.4
2019-Feb-14 05:27N 50°10' W 001°44'510.9
2019-Feb-14 05:00N 50°12' W 001°36'510.5
2019-Feb-14 04:30N 50°13' W 001°28'510.0
2019-Feb-14 04:00N 50°15' W 001°21'9 9.3
2019-Feb-14 03:00N 50°17' W 001°07'4 8.7
2019-Feb-14 02:30N 50°19' W 001°01'4 8.8
2019-Feb-14 02:00N 50°20' W 000°54'4 9.0
2019-Feb-14 01:30N 50°21' W 000°47'5 9.3
2019-Feb-14 01:00N 50°22' W 000°40'5 9.5
2019-Feb-14 00:29N 50°24' W 000°33'5 9.5
2019-Feb-14 00:00N 50°25' W 000°26'510.1
2019-Feb-13 23:30N 50°26' W 000°18'510.6
2019-Feb-13 23:00N 50°27' W 000°10'510.9
2019-Feb-13 22:30N 50°29' W 000°02'611.2
2019-Feb-13 22:00N 50°31' E 000°06'611.4
2019-Feb-13 21:30N 50°32' E 000°15'611.5
2019-Feb-13 21:00N 50°33' E 000°24'611.4
2019-Feb-13 20:30N 50°35' E 000°33'611.2
2019-Feb-13 20:00N 50°36' E 000°41'611.2
2019-Feb-13 19:30N 50°38' E 000°49'611.3
2019-Feb-13 19:00N 50°40' E 000°58'611.0
2019-Feb-13 18:30N 50°42' E 001°06'510.8
2019-Feb-13 18:00N 50°42' E 001°15'510.5
2019-Feb-13 17:30N 50°40' E 001°22'5 9.8
2019-Feb-13 17:00N 50°43' E 001°28'4 8.1
2019-Feb-13 16:30N 50°45' E 001°34'1 2.8
2019-Feb-13 16:00N 50°43' E 001°35'0 0.0
2019-Feb-13 15:30N 50°43' E 001°35'  

Dump ship's entire track history